Time;durP1;ratioP1;P1;durP2;ratioP2;P2;SDS_P1;SDS_P2;PMS_P1;PMS_P2;Temp;Humidity;BMP_temperature;BMP_pressure;BME280_temperature;BME280_humidity;BME280_pressure;Samples;Min_cycle;Max_cycle;Signal;HPM_P1;HPM_P2
2023/10/07 00:00:16;;;;;;;;;;;16.80;99.90;;;;;;5073977;28;20392;-32
2023/10/07 00:02:43;;;;;;;;;;;16.70;99.90;;;;;;5086259;28;20034;-33
2023/10/07 00:05:15;;;;;;;;;;;16.70;99.90;;;;;;5093654;28;20018;-32
2023/10/07 00:07:44;;;;;;;;;;;16.80;99.90;;;;;;5090869;28;19945;-33
2023/10/07 00:10:14;;;;;;;;;;;16.70;99.90;;;;;;5080243;28;20518;-31
2023/10/07 00:12:40;;;;;;;;;;;16.80;99.90;;;;;;5073235;28;20396;-32
2023/10/07 00:15:11;;;;;;;;;;;16.80;99.90;;;;;;5073304;28;19948;-32
2023/10/07 00:17:42;;;;;;;;;;;16.80;99.90;;;;;;5093472;28;19965;-32
2023/10/07 00:20:10;;;;;;;;;;;16.80;99.90;;;;;;5076024;28;19948;-32
2023/10/07 00:22:41;;;;;;;;;;;16.80;99.90;;;;;;5071356;28;19948;-32
2023/10/07 00:25:12;;;;;;;;;;;16.80;99.90;;;;;;5079165;28;19951;-32
2023/10/07 00:27:38;;;;;;;;;;;16.80;99.90;;;;;;5089621;28;19948;-32
2023/10/07 00:30:13;;;;;;;;;;;16.80;99.90;;;;;;5092348;28;20032;-32
2023/10/07 00:32:39;;;;;;;;;;;16.80;99.90;;;;;;5083207;28;20397;-32
2023/10/07 00:35:07;;;;;;;;;;;16.80;99.90;;;;;;5081063;28;19947;-33
2023/10/07 00:37:34;;;;;;;;;;;16.80;99.90;;;;;;5091293;28;20337;-32
2023/10/07 00:40:14;;;;;;;;;;;16.80;99.90;;;;;;5085513;28;20051;-33
2023/10/07 00:42:44;;;;;;;;;;;16.80;99.90;;;;;;5090128;28;19951;-33
2023/10/07 00:45:15;;;;;;;;;;;16.90;99.90;;;;;;5071879;28;19944;-33
2023/10/07 00:47:42;;;;;;;;;;;16.90;99.90;;;;;;5091034;28;19945;-31
2023/10/07 00:50:09;;;;;;;;;;;16.90;99.90;;;;;;5090933;28;20329;-33
2023/10/07 00:52:41;;;;;;;;;;;16.90;99.90;;;;;;5089546;28;19946;-32
2023/10/07 00:55:17;;;;;;;;;;;16.90;99.90;;;;;;5071351;28;19951;-32
2023/10/07 00:57:48;;;;;;;;;;;16.90;99.90;;;;;;5072059;28;20007;-33
2023/10/07 01:00:40;;;;;;;;;;;16.90;99.90;;;;;;5091956;28;20401;-33
2023/10/07 01:03:13;;;;;;;;;;;16.90;99.90;;;;;;5072394;28;19957;-31
2023/10/07 01:05:53;;;;;;;;;;;16.90;99.90;;;;;;5087018;28;20063;-32
2023/10/07 01:08:26;;;;;;;;;;;17.00;99.90;;;;;;5090116;28;19955;-33
2023/10/07 01:10:54;;;;;;;;;;;17.00;99.90;;;;;;5081734;28;19997;-32
2023/10/07 01:13:29;;;;;;;;;;;17.00;99.90;;;;;;5082273;28;19943;-32
2023/10/07 01:15:56;;;;;;;;;;;17.00;99.90;;;;;;5089444;28;19948;-34
2023/10/07 01:18:22;;;;;;;;;;;17.00;99.90;;;;;;5092696;28;20025;-31
2023/10/07 01:21:00;;;;;;;;;;;17.00;99.90;;;;;;5079971;28;19941;-33
2023/10/07 01:23:33;;;;;;;;;;;17.00;99.90;;;;;;5070487;28;20401;-32
2023/10/07 01:26:00;;;;;;;;;;;17.00;99.90;;;;;;5087057;28;20016;-32
2023/10/07 01:28:27;;;;;;;;;;;17.00;99.90;;;;;;5089071;28;19949;-33
2023/10/07 01:31:07;;;;;;;;;;;17.10;99.90;;;;;;5091339;28;20005;-32
2023/10/07 01:33:39;;;;;;;;;;;17.00;99.90;;;;;;5091509;28;20347;-32
2023/10/07 01:36:10;;;;;;;;;;;17.10;99.90;;;;;;5082319;28;19943;-32
2023/10/07 01:38:43;;;;;;;;;;;17.00;99.90;;;;;;5080315;28;19996;-33
2023/10/07 01:41:14;;;;;;;;;;;17.00;99.90;;;;;;5126527;27;19948;-31
2023/10/07 01:43:41;;;;;;;;;;;17.00;99.90;;;;;;5076628;28;20296;-34
2023/10/07 01:46:10;;;;;;;;;;;17.00;99.90;;;;;;5076493;28;20014;-32
2023/10/07 01:48:37;;;;;;;;;;;17.00;99.90;;;;;;5074824;28;20046;-31
2023/10/07 01:51:05;;;;;;;;;;;17.00;99.90;;;;;;5081053;28;19947;-33
2023/10/07 01:53:32;;;;;;;;;;;17.00;99.90;;;;;;5094290;28;20403;-32
2023/10/07 01:56:04;;;;;;;;;;;17.00;99.90;;;;;;5095260;28;19954;-31
2023/10/07 01:58:31;;;;;;;;;;;17.10;99.90;;;;;;5076599;28;20372;-32
2023/10/07 02:00:59;;;;;;;;;;;17.00;99.90;;;;;;5088593;28;19945;-32
2023/10/07 02:03:25;;;;;;;;;;;17.00;99.90;;;;;;5094305;28;20379;-32
2023/10/07 02:05:53;;;;;;;;;;;17.00;99.90;;;;;;5087306;28;20391;-32
2023/10/07 02:08:22;;;;;;;;;;;17.00;99.90;;;;;;5081864;28;20038;-32
2023/10/07 02:10:49;;;;;;;;;;;17.00;99.90;;;;;;5092328;28;19958;-31
2023/10/07 02:13:19;;;;;;;;;;;17.10;99.90;;;;;;5092733;28;19951;-32
2023/10/07 02:15:46;;;;;;;;;;;17.10;99.90;;;;;;5092368;28;19950;-31
2023/10/07 02:18:15;;;;;;;;;;;17.10;99.90;;;;;;5093185;28;19956;-31
2023/10/07 02:20:44;;;;;;;;;;;17.10;99.90;;;;;;5084565;28;19955;-31
2023/10/07 02:23:13;;;;;;;;;;;17.10;99.90;;;;;;5090336;28;20047;-31
2023/10/07 02:25:43;;;;;;;;;;;17.10;99.90;;;;;;5076450;28;19996;-31
2023/10/07 02:28:09;;;;;;;;;;;17.10;99.90;;;;;;5085955;28;19951;-31
2023/10/07 02:30:51;;;;;;;;;;;17.10;99.90;;;;;;5092577;28;19944;-31
2023/10/07 02:33:21;;;;;;;;;;;17.10;99.90;;;;;;5085455;28;19947;-32
2023/10/07 02:35:54;;;;;;;;;;;17.10;99.90;;;;;;5092943;28;20015;-31
2023/10/07 02:38:25;;;;;;;;;;;17.20;99.90;;;;;;5080587;28;20049;-31
2023/10/07 02:40:52;;;;;;;;;;;17.10;99.90;;;;;;5093399;28;19953;-32
2023/10/07 02:43:20;;;;;;;;;;;17.20;99.90;;;;;;5087974;28;20070;-31
2023/10/07 02:45:48;;;;;;;;;;;17.20;99.90;;;;;;5076304;28;20387;-31
2023/10/07 02:48:18;;;;;;;;;;;17.20;99.90;;;;;;5080041;28;19941;-32
2023/10/07 02:50:45;;;;;;;;;;;17.20;99.90;;;;;;5076466;28;19951;-31
2023/10/07 02:53:14;;;;;;;;;;;17.20;99.90;;;;;;5087286;28;19972;-32
2023/10/07 02:55:47;;;;;;;;;;;17.20;99.90;;;;;;5080683;28;20032;-32
2023/10/07 02:58:24;;;;;;;;;;;17.20;99.90;;;;;;5079579;28;19956;-32
2023/10/07 03:00:58;;;;;;;;;;;17.20;99.90;;;;;;5089008;28;19940;-32
2023/10/07 03:03:38;;;;;;;;;;;17.20;99.90;;;;;;5079882;28;19949;-31
2023/10/07 03:06:07;;;;;;;;;;;17.20;99.90;;;;;;5080594;28;19992;-32
2023/10/07 03:08:43;;;;;;;;;;;17.20;99.90;;;;;;5088697;28;20389;-32
2023/10/07 03:11:11;;;;;;;;;;;17.20;99.90;;;;;;5091710;28;20472;-31
2023/10/07 03:13:38;;;;;;;;;;;17.20;99.90;;;;;;5093396;28;19945;-31
2023/10/07 03:19:05;;;;;;;;;;;17.20;99.90;;;;;;5082999;28;20189;-32
2023/10/07 03:21:54;;;;;;;;;;;17.20;99.90;;;;;;5093222;28;19989;-33
2023/10/07 03:24:29;;;;;;;;;;;17.20;99.90;;;;;;5093234;28;19949;-32
2023/10/07 03:27:05;;;;;;;;;;;17.20;99.90;;;;;;5093365;28;20329;-32
2023/10/07 03:29:36;;;;;;;;;;;17.20;99.90;;;;;;5087984;28;19996;-32
2023/10/07 03:32:12;;;;;;;;;;;17.20;99.90;;;;;;5074603;28;19947;-33
2023/10/07 03:34:40;;;;;;;;;;;17.30;99.90;;;;;;5073699;28;20553;-32
2023/10/07 03:37:15;;;;;;;;;;;17.20;99.90;;;;;;5074183;28;19944;-32
2023/10/07 03:40:18;;;;;;;;;;;17.20;99.90;;;;;;5087057;28;20044;-33
2023/10/07 03:42:46;;;;;;;;;;;17.30;99.90;;;;;;5083342;28;19942;-32
2023/10/07 03:45:14;;;;;;;;;;;17.30;99.90;;;;;;5092932;28;19955;-33
2023/10/07 03:47:46;;;;;;;;;;;17.30;99.90;;;;;;5092345;28;20536;-32
2023/10/07 03:50:29;;;;;;;;;;;17.20;99.90;;;;;;5080003;28;20036;-32
2023/10/07 03:52:58;;;;;;;;;;;17.30;99.90;;;;;;5086422;28;19991;-32
2023/10/07 03:55:27;;;;;;;;;;;17.30;99.90;;;;;;5092967;28;19947;-32
2023/10/07 03:57:54;;;;;;;;;;;17.30;99.90;;;;;;5092100;28;19965;-33
2023/10/07 04:00:21;;;;;;;;;;;17.30;99.90;;;;;;5080511;28;19942;-33
2023/10/07 04:02:49;;;;;;;;;;;17.30;99.90;;;;;;5091768;28;20389;-30
2023/10/07 04:05:31;;;;;;;;;;;17.30;99.90;;;;;;5083135;28;20378;-31
2023/10/07 04:07:57;;;;;;;;;;;17.30;99.90;;;;;;5091450;28;19942;-30
2023/10/07 04:10:31;;;;;;;;;;;17.30;99.90;;;;;;5092150;28;19990;-32
2023/10/07 04:12:57;;;;;;;;;;;17.30;99.90;;;;;;5091861;28;19947;-31
2023/10/07 04:15:30;;;;;;;;;;;17.30;99.90;;;;;;5092708;28;19948;-30
2023/10/07 04:17:59;;;;;;;;;;;17.30;99.90;;;;;;5091496;28;20424;-31
2023/10/07 04:20:42;;;;;;;;;;;17.30;99.90;;;;;;5093499;28;20004;-32
2023/10/07 04:23:09;;;;;;;;;;;17.30;99.90;;;;;;5072532;28;19968;-33
2023/10/07 04:25:43;;;;;;;;;;;17.30;99.90;;;;;;5073104;28;19988;-33
2023/10/07 04:28:13;;;;;;;;;;;17.30;99.90;;;;;;5073667;28;20310;-31
2023/10/07 04:30:40;;;;;;;;;;;17.30;99.90;;;;;;5092181;28;20392;-32
2023/10/07 04:33:10;;;;;;;;;;;17.30;99.90;;;;;;5092200;28;19997;-33
2023/10/07 04:35:38;;;;;;;;;;;17.30;99.90;;;;;;5080989;28;20041;-31
2023/10/07 04:38:19;;;;;;;;;;;17.30;99.90;;;;;;5090837;28;19961;-31
2023/10/07 04:41:30;;;;;;;;;;;17.30;99.90;;;;;;5092095;28;19957;-31
2023/10/07 04:43:49;;;;;;;;;;;17.30;99.90;;;;;;5092539;28;19950;-31
2023/10/07 04:46:22;;;;;;;;;;;17.30;99.90;;;;;;5092099;28;19952;-32
2023/10/07 04:48:56;;;;;;;;;;;17.30;99.90;;;;;;5088416;28;19940;-31
2023/10/07 04:51:34;;;;;;;;;;;17.30;99.90;;;;;;5091268;28;20330;-32
2023/10/07 04:54:01;;;;;;;;;;;17.30;99.90;;;;;;5073000;28;19956;-33
2023/10/07 04:56:27;;;;;;;;;;;17.30;99.90;;;;;;5076300;28;20313;-30
2023/10/07 04:58:54;;;;;;;;;;;17.30;99.90;;;;;;5076782;28;19962;-32
2023/10/07 05:01:30;;;;;;;;;;;17.30;99.90;;;;;;5088628;28;19975;-34
2023/10/07 05:03:59;;;;;;;;;;;17.30;99.90;;;;;;5090839;28;19979;-34
2023/10/07 05:06:25;;;;;;;;;;;17.30;99.90;;;;;;5087830;28;19964;-32
2023/10/07 05:08:52;;;;;;;;;;;17.30;99.90;;;;;;5085142;28;20312;-32
2023/10/07 05:11:17;;;;;;;;;;;17.30;99.90;;;;;;5087833;28;19946;-32
2023/10/07 05:13:44;;;;;;;;;;;17.30;99.90;;;;;;5089285;28;19947;-31
2023/10/07 05:16:10;;;;;;;;;;;17.30;99.90;;;;;;5081616;28;20052;-31
2023/10/07 05:18:38;;;;;;;;;;;17.30;99.90;;;;;;5079270;28;20499;-32
2023/10/07 05:21:06;;;;;;;;;;;17.30;99.90;;;;;;5078795;28;20003;-32
2023/10/07 05:23:33;;;;;;;;;;;17.30;99.90;;;;;;5075344;28;19944;-32
2023/10/07 05:26:03;;;;;;;;;;;17.30;99.90;;;;;;5079760;28;19975;-31
2023/10/07 05:28:32;;;;;;;;;;;17.30;99.90;;;;;;5078984;28;19950;-32
2023/10/07 05:31:00;;;;;;;;;;;17.30;99.90;;;;;;5088343;28;20002;-32
2023/10/07 05:33:28;;;;;;;;;;;17.30;99.90;;;;;;5079659;28;19994;-32
2023/10/07 05:35:58;;;;;;;;;;;17.20;99.90;;;;;;5084159;28;20291;-32
2023/10/07 05:38:26;;;;;;;;;;;17.30;99.90;;;;;;5070128;28;20484;-31
2023/10/07 05:40:53;;;;;;;;;;;17.30;99.90;;;;;;5079317;28;20307;-31
2023/10/07 05:43:19;;;;;;;;;;;17.30;99.90;;;;;;5074486;28;19999;-32
2023/10/07 05:45:46;;;;;;;;;;;17.30;99.90;;;;;;5073555;28;20459;-32
2023/10/07 05:48:13;;;;;;;;;;;17.20;99.90;;;;;;5085298;28;19993;-34
2023/10/07 05:50:39;;;;;;;;;;;17.30;99.90;;;;;;5081156;28;20390;-32
2023/10/07 05:53:06;;;;;;;;;;;17.30;99.90;;;;;;5084804;28;19940;-33
2023/10/07 05:55:36;;;;;;;;;;;17.20;99.90;;;;;;5083666;28;20399;-34
2023/10/07 05:58:02;;;;;;;;;;;17.20;99.90;;;;;;5079166;28;20038;-32
2023/10/07 06:00:31;;;;;;;;;;;17.20;99.90;;;;;;5077400;28;19953;-32
2023/10/07 06:02:59;;;;;;;;;;;17.20;99.90;;;;;;5072829;28;20431;-32
2023/10/07 06:05:27;;;;;;;;;;;17.30;99.90;;;;;;5083166;28;19973;-33
2023/10/07 06:07:54;;;;;;;;;;;17.20;99.90;;;;;;5078540;28;20373;-32
2023/10/07 06:10:24;;;;;;;;;;;17.20;99.90;;;;;;5073900;28;19993;-32
2023/10/07 06:12:54;;;;;;;;;;;17.20;99.90;;;;;;5085105;28;19995;-32
2023/10/07 06:15:20;;;;;;;;;;;17.20;99.90;;;;;;5081737;28;20478;-32
2023/10/07 06:17:47;;;;;;;;;;;17.20;99.90;;;;;;5075532;28;20371;-32
2023/10/07 06:20:15;;;;;;;;;;;17.20;99.90;;;;;;5073405;28;19986;-33
2023/10/07 06:22:46;;;;;;;;;;;17.20;99.90;;;;;;5070703;28;19941;-32
2023/10/07 06:25:14;;;;;;;;;;;17.20;99.90;;;;;;5073421;28;20318;-32
2023/10/07 06:27:43;;;;;;;;;;;17.20;99.90;;;;;;5083237;28;19992;-34
2023/10/07 06:30:16;;;;;;;;;;;17.20;99.90;;;;;;5089333;28;20004;-32
2023/10/07 06:32:44;;;;;;;;;;;17.30;99.90;;;;;;5079883;28;19942;-32
2023/10/07 06:35:14;;;;;;;;;;;17.20;99.90;;;;;;5089968;28;20322;-33
2023/10/07 06:37:41;;;;;;;;;;;17.30;99.90;;;;;;5084087;28;20031;-33
2023/10/07 06:40:23;;;;;;;;;;;17.30;99.90;;;;;;5108669;27;19964;-34
2023/10/07 06:42:50;;;;;;;;;;;17.30;99.90;;;;;;5083092;28;20329;-32
2023/10/07 06:45:18;;;;;;;;;;;17.30;99.90;;;;;;5087183;28;19953;-31
2023/10/07 06:47:46;;;;;;;;;;;17.30;99.90;;;;;;5086898;28;20415;-33
2023/10/07 06:50:18;;;;;;;;;;;17.30;99.90;;;;;;5084296;28;20001;-33
2023/10/07 06:52:44;;;;;;;;;;;17.30;99.90;;;;;;5087071;28;19965;-32
2023/10/07 06:55:11;;;;;;;;;;;17.20;99.90;;;;;;5078203;28;19954;-32
2023/10/07 06:57:38;;;;;;;;;;;17.30;99.90;;;;;;5084794;28;20007;-32
2023/10/07 07:00:11;;;;;;;;;;;17.30;99.90;;;;;;5089110;28;20055;-31
2023/10/07 07:02:43;;;;;;;;;;;17.40;99.90;;;;;;5081973;28;19943;-32
2023/10/07 07:05:16;;;;;;;;;;;17.40;99.90;;;;;;5085911;28;20467;-32
2023/10/07 07:07:42;;;;;;;;;;;17.40;99.90;;;;;;5091573;28;19965;-33
2023/10/07 07:10:16;;;;;;;;;;;17.40;99.90;;;;;;5089114;28;19943;-32
2023/10/07 07:12:44;;;;;;;;;;;17.40;99.90;;;;;;5074867;28;20030;-32
2023/10/07 07:15:26;;;;;;;;;;;17.40;99.90;;;;;;5114757;27;19983;-33
2023/10/07 07:18:07;;;;;;;;;;;17.40;99.90;;;;;;5074659;28;19948;-33
2023/10/07 07:20:48;;;;;;;;;;;17.50;99.90;;;;;;5074467;28;20009;-32
2023/10/07 07:23:16;;;;;;;;;;;17.50;99.90;;;;;;5088255;28;20043;-32
2023/10/07 07:25:53;;;;;;;;;;;17.60;99.90;;;;;;5089273;28;19988;-33
2023/10/07 07:28:20;;;;;;;;;;;17.60;99.90;;;;;;5089143;28;20399;-34
2023/10/07 07:30:46;;;;;;;;;;;17.60;99.90;;;;;;5083482;28;19950;-31
2023/10/07 07:33:15;;;;;;;;;;;17.70;99.90;;;;;;5084159;28;20020;-33
2023/10/07 07:35:43;;;;;;;;;;;17.70;99.90;;;;;;5081291;28;20038;-32
2023/10/07 07:38:20;;;;;;;;;;;17.70;99.90;;;;;;5089107;28;19955;-32
2023/10/07 07:40:49;;;;;;;;;;;17.80;99.90;;;;;;5081990;28;19941;-32
2023/10/07 07:43:19;;;;;;;;;;;17.80;99.90;;;;;;5083101;28;20300;-33
2023/10/07 07:45:46;;;;;;;;;;;17.80;99.90;;;;;;5084595;28;19939;-32
2023/10/07 07:48:14;;;;;;;;;;;17.90;99.90;;;;;;5082388;28;20390;-32
2023/10/07 07:50:42;;;;;;;;;;;17.90;99.90;;;;;;5074649;28;20026;-32
2023/10/07 07:53:09;;;;;;;;;;;17.90;99.90;;;;;;5118825;27;19947;-32
2023/10/07 07:55:37;;;;;;;;;;;18.00;99.90;;;;;;5073521;28;20454;-32
2023/10/07 07:58:04;;;;;;;;;;;18.00;99.90;;;;;;5080272;28;19938;-32
2023/10/07 08:00:31;;;;;;;;;;;18.00;99.90;;;;;;5089044;28;19956;-32
2023/10/07 08:02:58;;;;;;;;;;;18.10;99.90;;;;;;5084032;28;20039;-32
2023/10/07 08:05:28;;;;;;;;;;;18.10;99.90;;;;;;5071834;28;19965;-33
2023/10/07 08:07:58;;;;;;;;;;;18.10;99.90;;;;;;5082291;28;20352;-33
2023/10/07 08:10:26;;;;;;;;;;;18.20;99.90;;;;;;5103512;28;19944;-32
2023/10/07 08:12:58;;;;;;;;;;;18.30;99.90;;;;;;5077232;28;20279;-32
2023/10/07 08:15:25;;;;;;;;;;;18.40;99.90;;;;;;5084676;28;19974;-32
2023/10/07 08:17:52;;;;;;;;;;;18.40;99.90;;;;;;5089890;28;19943;-32
2023/10/07 08:20:26;;;;;;;;;;;18.40;99.90;;;;;;5082814;28;20337;-32
2023/10/07 08:22:54;;;;;;;;;;;18.40;99.90;;;;;;5086230;28;20433;-32
2023/10/07 08:25:37;;;;;;;;;;;18.40;99.90;;;;;;5091450;28;20186;-34
2023/10/07 08:28:18;;;;;;;;;;;18.40;99.90;;;;;;5081386;28;19946;-32
2023/10/07 08:30:46;;;;;;;;;;;18.40;99.90;;;;;;5070584;28;19948;-33
2023/10/07 08:33:14;;;;;;;;;;;18.30;99.90;;;;;;5086178;28;19957;-32
2023/10/07 08:35:43;;;;;;;;;;;18.30;99.90;;;;;;5071708;28;19945;-32
2023/10/07 08:38:20;;;;;;;;;;;18.30;99.90;;;;;;5077202;28;19989;-32
2023/10/07 08:40:50;;;;;;;;;;;18.30;99.90;;;;;;5090736;28;20402;-33
2023/10/07 08:43:19;;;;;;;;;;;18.30;99.90;;;;;;5074153;28;19942;-34
2023/10/07 08:45:47;;;;;;;;;;;18.30;99.90;;;;;;5077535;28;20037;-32
2023/10/07 08:48:15;;;;;;;;;;;18.30;99.90;;;;;;5070976;28;19940;-32
2023/10/07 08:50:49;;;;;;;;;;;18.30;99.90;;;;;;5072584;28;19971;-32
2023/10/07 08:53:16;;;;;;;;;;;18.30;99.90;;;;;;5086072;28;19936;-33
2023/10/07 08:55:43;;;;;;;;;;;18.30;99.90;;;;;;5073789;28;19947;-32
2023/10/07 08:58:12;;;;;;;;;;;18.30;99.90;;;;;;5086710;28;20042;-34
2023/10/07 09:00:45;;;;;;;;;;;18.30;99.90;;;;;;5089899;28;20047;-34
2023/10/07 09:03:15;;;;;;;;;;;18.40;99.90;;;;;;5091063;28;20508;-33
2023/10/07 09:05:41;;;;;;;;;;;18.40;99.90;;;;;;5079518;28;19999;-33
2023/10/07 09:08:11;;;;;;;;;;;18.40;99.90;;;;;;5070299;28;20437;-32
2023/10/07 09:10:38;;;;;;;;;;;18.50;99.90;;;;;;5072296;28;19956;-33
2023/10/07 09:13:05;;;;;;;;;;;18.50;99.90;;;;;;5071391;28;20204;-32
2023/10/07 09:15:36;;;;;;;;;;;18.60;99.90;;;;;;5072779;28;20414;-32
2023/10/07 09:18:04;;;;;;;;;;;18.60;99.90;;;;;;5086399;28;19993;-32
2023/10/07 09:20:31;;;;;;;;;;;18.60;99.90;;;;;;5092650;28;20027;-32
2023/10/07 09:23:00;;;;;;;;;;;18.70;99.90;;;;;;5092495;28;19950;-32
2023/10/07 09:25:31;;;;;;;;;;;18.80;99.90;;;;;;5090230;28;19943;-32
2023/10/07 09:27:58;;;;;;;;;;;18.90;99.90;;;;;;5089810;28;20323;-33
2023/10/07 09:30:37;;;;;;;;;;;18.90;99.90;;;;;;5092795;28;20350;-33
2023/10/07 09:33:12;;;;;;;;;;;18.90;99.90;;;;;;5091643;28;19944;-34
2023/10/07 09:36:33;;;;;;;;;;;19.00;99.90;;;;;;5092624;28;19958;-32
2023/10/07 09:39:31;;;;;;;;;;;19.10;99.90;;;;;;5092550;28;19995;-32
2023/10/07 09:42:03;;;;;;;;;;;19.10;99.90;;;;;;5078370;28;19945;-32
2023/10/07 09:44:31;;;;;;;;;;;19.10;99.90;;;;;;5091586;28;19944;-34
2023/10/07 09:47:03;;;;;;;;;;;19.10;99.90;;;;;;5091568;28;19942;-33
2023/10/07 09:49:32;;;;;;;;;;;19.10;99.90;;;;;;5090375;28;20443;-32
2023/10/07 09:52:15;;;;;;;;;;;19.10;99.90;;;;;;5092216;28;20431;-32
2023/10/07 09:54:47;;;;;;;;;;;19.20;99.90;;;;;;5090862;28;20321;-35
2023/10/07 09:57:20;;;;;;;;;;;19.20;99.90;;;;;;5091339;28;19975;-33
2023/10/07 10:00:26;;;;;;;;;;;19.20;99.90;;;;;;5092472;28;20306;-33
2023/10/07 10:02:51;;;;;;;;;;;19.20;99.90;;;;;;5075245;28;20044;-33
2023/10/07 10:05:35;;;;;;;;;;;19.20;99.90;;;;;;5091663;28;19969;-33
2023/10/07 10:08:29;;;;;;;;;;;19.20;99.90;;;;;;5095310;28;19993;-32
2023/10/07 10:10:58;;;;;;;;;;;19.20;99.90;;;;;;5069510;28;20044;-31
2023/10/07 10:13:51;;;;;;;;;;;19.20;99.90;;;;;;5095033;28;19989;-31
2023/10/07 10:16:16;;;;;;;;;;;19.20;99.90;;;;;;5095779;28;20351;-32
2023/10/07 10:18:43;;;;;;;;;;;19.20;99.90;;;;;;5094769;28;20326;-32
2023/10/07 10:21:12;;;;;;;;;;;19.20;99.90;;;;;;5093370;28;19962;-32
2023/10/07 10:23:44;;;;;;;;;;;19.30;99.90;;;;;;5093688;28;20376;-32
2023/10/07 10:26:22;;;;;;;;;;;19.30;99.90;;;;;;5083914;28;20042;-32
2023/10/07 10:28:59;;;;;;;;;;;19.30;99.90;;;;;;5075589;28;20396;-31
2023/10/07 10:31:32;;;;;;;;;;;19.30;99.90;;;;;;5089435;28;19954;-32
2023/10/07 10:33:59;;;;;;;;;;;19.40;99.90;;;;;;5093932;28;20011;-32
2023/10/07 10:36:27;;;;;;;;;;;19.40;99.90;;;;;;5096047;28;20352;-34
2023/10/07 10:38:53;;;;;;;;;;;19.50;99.90;;;;;;5093224;28;19948;-32
2023/10/07 10:41:27;;;;;;;;;;;19.50;99.90;;;;;;5095645;28;19968;-32
2023/10/07 10:44:02;;;;;;;;;;;19.60;99.90;;;;;;5092628;28;20441;-32
2023/10/07 10:46:29;;;;;;;;;;;19.60;99.90;;;;;;5094281;28;19948;-34
2023/10/07 10:48:56;;;;;;;;;;;19.70;99.90;;;;;;5094089;28;20350;-32
2023/10/07 10:51:24;;;;;;;;;;;19.70;99.90;;;;;;5094499;28;19954;-32
2023/10/07 10:53:52;;;;;;;;;;;19.70;99.90;;;;;;5076420;28;19949;-33
2023/10/07 10:56:18;;;;;;;;;;;19.80;99.90;;;;;;5093948;28;19945;-32
2023/10/07 10:58:53;;;;;;;;;;;19.70;99.90;;;;;;5090418;28;19951;-33
2023/10/07 11:01:20;;;;;;;;;;;19.80;99.90;;;;;;5093617;28;20021;-33
2023/10/07 11:03:48;;;;;;;;;;;19.80;99.90;;;;;;5093959;28;20610;-33
2023/10/07 11:06:15;;;;;;;;;;;19.80;99.90;;;;;;5127640;27;19971;-32
2023/10/07 11:08:42;;;;;;;;;;;19.80;99.90;;;;;;5092158;28;20423;-32
2023/10/07 11:11:12;;;;;;;;;;;19.80;99.90;;;;;;5094075;28;20011;-32
2023/10/07 11:13:39;;;;;;;;;;;19.80;99.90;;;;;;5091875;28;19974;-34
2023/10/07 11:16:09;;;;;;;;;;;19.80;99.90;;;;;;5092885;28;19947;-32
2023/10/07 11:18:37;;;;;;;;;;;19.80;99.90;;;;;;5093301;28;19950;-32
2023/10/07 11:21:05;;;;;;;;;;;19.80;99.90;;;;;;5125655;27;20387;-32
2023/10/07 11:23:32;;;;;;;;;;;19.80;99.90;;;;;;5093242;28;20289;-33
2023/10/07 11:25:59;;;;;;;;;;;19.80;99.90;;;;;;5094154;28;20010;-32
2023/10/07 11:28:33;;;;;;;;;;;19.80;99.90;;;;;;5093242;28;19946;-32
2023/10/07 11:31:00;;;;;;;;;;;19.90;99.90;;;;;;5085194;28;20302;-33
2023/10/07 11:33:26;;;;;;;;;;;20.00;99.90;;;;;;5089642;28;20364;-33
2023/10/07 11:35:57;;;;;;;;;;;20.00;99.90;;;;;;5085678;28;19946;-33
2023/10/07 11:38:25;;;;;;;;;;;20.00;99.90;;;;;;5078527;28;20444;-32
2023/10/07 11:40:51;;;;;;;;;;;20.00;99.90;;;;;;5091356;28;19971;-33
2023/10/07 11:43:18;;;;;;;;;;;20.00;99.90;;;;;;5071736;28;20000;-32
2023/10/07 11:45:47;;;;;;;;;;;19.90;99.90;;;;;;5088287;28;19952;-33
2023/10/07 11:48:19;;;;;;;;;;;19.90;99.90;;;;;;5090918;28;20037;-33
2023/10/07 11:50:47;;;;;;;;;;;19.90;99.90;;;;;;5092596;28;19949;-32
2023/10/07 11:53:13;;;;;;;;;;;19.90;99.90;;;;;;5093329;28;19955;-33
2023/10/07 11:55:40;;;;;;;;;;;19.90;99.90;;;;;;5075442;28;19979;-32
2023/10/07 11:58:08;;;;;;;;;;;20.00;99.90;;;;;;5085762;28;19940;-33
2023/10/07 12:00:35;;;;;;;;;;;20.10;99.90;;;;;;5084791;28;19953;-32
2023/10/07 12:03:06;;;;;;;;;;;20.30;99.90;;;;;;5109069;27;20034;-30
2023/10/07 12:05:33;;;;;;;;;;;20.40;99.90;;;;;;5080500;28;19993;-31
2023/10/07 12:08:01;;;;;;;;;;;20.50;99.90;;;;;;5086473;28;19946;-34
2023/10/07 12:10:28;;;;;;;;;;;20.50;99.90;;;;;;5087643;28;20397;-31
2023/10/07 12:12:54;;;;;;;;;;;20.50;99.90;;;;;;5082108;28;19951;-33
2023/10/07 12:15:21;;;;;;;;;;;20.60;99.90;;;;;;5081771;28;20386;-32
2023/10/07 12:17:48;;;;;;;;;;;20.70;99.90;;;;;;5084170;28;19994;-31
2023/10/07 12:20:19;;;;;;;;;;;20.80;99.90;;;;;;5082696;28;20034;-32
2023/10/07 12:22:47;;;;;;;;;;;20.80;99.90;;;;;;5074564;28;19989;-31
2023/10/07 12:25:16;;;;;;;;;;;20.80;99.90;;;;;;5082306;28;19976;-33
2023/10/07 12:27:42;;;;;;;;;;;20.80;99.90;;;;;;5077171;28;19941;-32
2023/10/07 12:30:11;;;;;;;;;;;20.80;99.90;;;;;;5075641;28;19947;-34
2023/10/07 12:32:37;;;;;;;;;;;20.80;99.90;;;;;;5083709;28;19944;-34
2023/10/07 12:35:04;;;;;;;;;;;20.70;99.90;;;;;;5089159;28;19950;-33
2023/10/07 12:37:32;;;;;;;;;;;20.70;99.90;;;;;;5071705;28;19942;-32
2023/10/07 12:40:01;;;;;;;;;;;20.60;99.90;;;;;;5090100;28;20376;-31
2023/10/07 12:42:27;;;;;;;;;;;20.70;99.90;;;;;;5077562;28;19968;-32
2023/10/07 12:44:54;;;;;;;;;;;20.70;99.90;;;;;;5078291;28;19955;-32
2023/10/07 12:47:22;;;;;;;;;;;20.70;99.90;;;;;;5090242;28;20002;-31
2023/10/07 12:49:53;;;;;;;;;;;20.60;99.90;;;;;;5093008;28;19966;-31
2023/10/07 12:52:19;;;;;;;;;;;20.60;99.90;;;;;;5090586;28;19945;-32
2023/10/07 12:54:47;;;;;;;;;;;20.60;99.90;;;;;;5088201;28;20039;-31
2023/10/07 12:57:15;;;;;;;;;;;20.70;99.90;;;;;;5091835;28;19947;-32
2023/10/07 12:59:42;;;;;;;;;;;20.70;99.90;;;;;;5091514;28;19948;-31
2023/10/07 13:02:17;;;;;;;;;;;20.80;99.90;;;;;;5091548;28;19969;-31
2023/10/07 13:04:44;;;;;;;;;;;20.80;99.90;;;;;;5076034;28;19963;-32
2023/10/07 13:07:11;;;;;;;;;;;20.80;99.90;;;;;;5083595;28;19948;-33
2023/10/07 13:09:40;;;;;;;;;;;20.80;99.90;;;;;;5074288;28;19952;-31
2023/10/07 13:12:15;;;;;;;;;;;20.80;99.90;;;;;;5071560;28;19962;-31
2023/10/07 13:14:42;;;;;;;;;;;20.80;99.90;;;;;;5071433;28;20002;-33
2023/10/07 13:17:13;;;;;;;;;;;20.80;99.90;;;;;;5071541;28;19944;-34
2023/10/07 13:19:43;;;;;;;;;;;20.80;99.90;;;;;;5071136;28;19953;-31
2023/10/07 13:22:10;;;;;;;;;;;20.80;99.90;;;;;;5072239;28;20454;-31
2023/10/07 13:24:37;;;;;;;;;;;20.70;99.90;;;;;;5072414;28;20453;-32
2023/10/07 13:27:04;;;;;;;;;;;20.60;99.90;;;;;;5071568;28;19954;-32
2023/10/07 13:29:34;;;;;;;;;;;20.60;99.90;;;;;;5072675;28;19947;-32
2023/10/07 13:32:03;;;;;;;;;;;20.50;99.90;;;;;;5071446;28;19942;-33
2023/10/07 13:34:31;;;;;;;;;;;20.50;99.90;;;;;;5072768;28;20343;-32
2023/10/07 13:36:58;;;;;;;;;;;20.50;99.90;;;;;;5082679;28;21306;-33
2023/10/07 13:39:24;;;;;;;;;;;20.50;99.90;;;;;;5096299;28;19994;-31
2023/10/07 13:41:52;;;;;;;;;;;20.40;99.90;;;;;;5096527;28;19959;-32
2023/10/07 13:44:22;;;;;;;;;;;20.40;99.90;;;;;;5094227;28;20393;-31
2023/10/07 13:46:51;;;;;;;;;;;20.40;99.90;;;;;;5095439;28;19944;-32
2023/10/07 13:49:17;;;;;;;;;;;20.40;99.90;;;;;;5095365;28;19944;-32
2023/10/07 13:51:45;;;;;;;;;;;20.40;99.90;;;;;;5083982;28;19950;-32
2023/10/07 13:54:38;;;;;;;;;;;20.40;99.90;;;;;;5077617;28;19940;-32
2023/10/07 13:57:09;;;;;;;;;;;20.40;99.90;;;;;;5074975;28;19953;-32
2023/10/07 13:59:39;;;;;;;;;;;20.50;99.90;;;;;;5108479;28;19945;-32
2023/10/07 14:02:13;;;;;;;;;;;20.50;99.90;;;;;;5108246;28;19969;-32
2023/10/07 14:04:39;;;;;;;;;;;20.50;99.90;;;;;;5075418;28;19972;-32
2023/10/07 14:07:06;;;;;;;;;;;20.50;99.90;;;;;;5094532;28;19958;-32
2023/10/07 14:09:36;;;;;;;;;;;20.40;99.90;;;;;;5095182;28;20011;-31
2023/10/07 14:12:06;;;;;;;;;;;20.30;99.90;;;;;;5087635;28;19952;-32
2023/10/07 14:14:33;;;;;;;;;;;20.30;99.90;;;;;;5075596;28;20386;-32
2023/10/07 14:17:00;;;;;;;;;;;20.30;99.90;;;;;;5074502;28;19945;-33
2023/10/07 14:19:29;;;;;;;;;;;20.20;99.90;;;;;;5074414;28;20395;-34
2023/10/07 14:21:57;;;;;;;;;;;20.20;99.90;;;;;;5089023;28;19963;-32
2023/10/07 14:24:28;;;;;;;;;;;20.20;99.90;;;;;;5095582;28;20492;-32
2023/10/07 14:26:54;;;;;;;;;;;20.10;99.90;;;;;;5094899;28;19953;-32
2023/10/07 14:29:22;;;;;;;;;;;20.10;99.90;;;;;;5094578;28;19983;-32
2023/10/07 14:31:51;;;;;;;;;;;20.10;99.90;;;;;;5095969;28;19952;-32
2023/10/07 14:34:18;;;;;;;;;;;20.00;99.90;;;;;;5094765;28;20017;-33
2023/10/07 14:36:46;;;;;;;;;;;20.00;99.90;;;;;;5091977;28;19947;-32